Hauptseite
METAR-TAF:

METAR-TAF

Flughäfen :

Topcliffe, England

Breite: 54-12N, Länge: 001-23W, Höhe: 28 m

Beobachtung

Neuester Wetterbericht von vor 21 Minuten, um 18:50 UTC
Wind 6 kt aus Ost
Temperatur -2°C
Luftfeuchtigkeit 74%
Luftdruck 1033 hPa
Sichtweite 10 km oder mehr

METAR: EGXZ 251850Z AUTO 10006KT 9999 NCD M02/M06 Q1033

Zeit: 19:11 (19:11 UTC)


TAF: fehlend

Wetterbeobachtungen und Prognosen von mehr als 4000 Flughäfen (METAR und TAF Bericht).

Die verfügbaren Stationen werden durch gelbe und rote Markierungen auf der Karte dargestellt.

Führen Sie die Maus auf sie, um den Namen der Station zu sehen.

Darauf klicken, um die Beobachtung von Wetterbeobachtungen und Prognosen zu sehen.

Um die Karte zu ändern : klicken Sie auf den grünen Tasten mit einem schwarzen Kreuz Zum Vergrößern, auf den grünen Button mit einem Gedankenstrich zu verkleinern, oder auf die grünen Pfeile für benachbarte Karten.


METAR-TAF: